sensor_id;sensor_type;location;lat;lon;timestamp;temperature;humidity
39067;DHT22;24821;51.988;6.020;2022-09-09T00:04:38;16.20;99.90
39067;DHT22;24821;51.988;6.020;2022-09-09T00:07:44;16.20;99.90
39067;DHT22;24821;51.988;6.020;2022-09-09T00:10:28;16.20;99.90
39067;DHT22;24821;51.988;6.020;2022-09-09T00:15:43;16.20;99.90
39067;DHT22;24821;51.988;6.020;2022-09-09T00:21:07;16.20;99.90
39067;DHT22;24821;51.988;6.020;2022-09-09T00:23:39;16.30;99.90
39067;DHT22;24821;51.988;6.020;2022-09-09T00:26:14;16.30;99.90
39067;DHT22;24821;51.988;6.020;2022-09-09T00:28:52;16.30;99.90
39067;DHT22;24821;51.988;6.020;2022-09-09T00:31:26;16.40;99.90
39067;DHT22;24821;51.988;6.020;2022-09-09T00:33:53;16.40;99.90
39067;DHT22;24821;51.988;6.020;2022-09-09T00:36:23;16.40;99.90
39067;DHT22;24821;51.988;6.020;2022-09-09T00:38:56;16.40;99.90
39067;DHT22;24821;51.988;6.020;2022-09-09T00:44:30;16.40;99.90
39067;DHT22;24821;51.988;6.020;2022-09-09T00:55:26;16.40;99.90
39067;DHT22;24821;51.988;6.020;2022-09-09T00:57:53;16.40;99.90
39067;DHT22;24821;51.988;6.020;2022-09-09T01:00:27;16.30;99.90
39067;DHT22;24821;51.988;6.020;2022-09-09T01:03:02;16.40;99.90
39067;DHT22;24821;51.988;6.020;2022-09-09T01:08:08;16.40;99.90
39067;DHT22;24821;51.988;6.020;2022-09-09T01:10:53;16.40;99.90
39067;DHT22;24821;51.988;6.020;2022-09-09T01:13:31;16.40;99.90
39067;DHT22;24821;51.988;6.020;2022-09-09T01:16:00;16.40;99.90
39067;DHT22;24821;51.988;6.020;2022-09-09T01:18:39;16.30;99.90
39067;DHT22;24821;51.988;6.020;2022-09-09T01:24:22;16.20;99.90
39067;DHT22;24821;51.988;6.020;2022-09-09T01:26:54;16.20;99.90
39067;DHT22;24821;51.988;6.020;2022-09-09T01:29:22;16.10;99.90
39067;DHT22;24821;51.988;6.020;2022-09-09T01:34:55;16.10;99.90
39067;DHT22;24821;51.988;6.020;2022-09-09T01:37:21;15.90;99.90
39067;DHT22;24821;51.988;6.020;2022-09-09T01:39:46;15.90;99.90
39067;DHT22;24821;51.988;6.020;2022-09-09T01:42:15;15.90;99.90
39067;DHT22;24821;51.988;6.020;2022-09-09T01:44:41;15.80;99.90
39067;DHT22;24821;51.988;6.020;2022-09-09T01:47:07;15.80;99.90
39067;DHT22;24821;51.988;6.020;2022-09-09T01:49:32;15.70;99.90
39067;DHT22;24821;51.988;6.020;2022-09-09T01:51:58;15.70;99.90
39067;DHT22;24821;51.988;6.020;2022-09-09T01:54:27;15.70;99.90
39067;DHT22;24821;51.988;6.020;2022-09-09T02:02:28;15.60;99.90
39067;DHT22;24821;51.988;6.020;2022-09-09T02:08:08;15.60;99.90
39067;DHT22;24821;51.988;6.020;2022-09-09T02:13:17;15.50;99.90
39067;DHT22;24821;51.988;6.020;2022-09-09T02:15:57;15.50;99.90
39067;DHT22;24821;51.988;6.020;2022-09-09T02:18:38;15.50;99.90
39067;DHT22;24821;51.988;6.020;2022-09-09T02:21:06;15.40;99.90
39067;DHT22;24821;51.988;6.020;2022-09-09T02:23:33;15.40;99.90
39067;DHT22;24821;51.988;6.020;2022-09-09T02:26:02;15.40;99.90
39067;DHT22;24821;51.988;6.020;2022-09-09T02:28:30;15.40;99.90
39067;DHT22;24821;51.988;6.020;2022-09-09T02:30:56;15.30;99.90
39067;DHT22;24821;51.988;6.020;2022-09-09T02:33:28;15.30;99.90
39067;DHT22;24821;51.988;6.020;2022-09-09T02:35:56;15.30;99.90
39067;DHT22;24821;51.988;6.020;2022-09-09T02:38:30;15.30;99.90
39067;DHT22;24821;51.988;6.020;2022-09-09T02:40:57;15.30;99.90
39067;DHT22;24821;51.988;6.020;2022-09-09T02:43:24;15.20;99.90
39067;DHT22;24821;51.988;6.020;2022-09-09T02:45:57;15.20;99.90
39067;DHT22;24821;51.988;6.020;2022-09-09T02:48:32;15.20;99.90
39067;DHT22;24821;51.988;6.020;2022-09-09T02:51:06;15.20;99.90
39067;DHT22;24821;51.988;6.020;2022-09-09T02:56:18;15.20;99.90
39067;DHT22;24821;51.988;6.020;2022-09-09T02:58:46;15.10;99.90
39067;DHT22;24821;51.988;6.020;2022-09-09T03:01:12;15.10;99.90
39067;DHT22;24821;51.988;6.020;2022-09-09T03:03:39;15.10;99.90
39067;DHT22;24821;51.988;6.020;2022-09-09T03:06:06;15.10;99.90
39067;DHT22;24821;51.988;6.020;2022-09-09T03:08:32;15.10;99.90
39067;DHT22;24821;51.988;6.020;2022-09-09T03:11:00;15.00;99.90
39067;DHT22;24821;51.988;6.020;2022-09-09T03:13:29;15.00;99.90
39067;DHT22;24821;51.988;6.020;2022-09-09T03:15:54;15.00;99.90
39067;DHT22;24821;51.988;6.020;2022-09-09T03:18:20;15.00;99.90
39067;DHT22;24821;51.988;6.020;2022-09-09T03:20:46;15.00;99.90
39067;DHT22;24821;51.988;6.020;2022-09-09T03:23:14;15.00;99.90
39067;DHT22;24821;51.988;6.020;2022-09-09T03:25:46;14.90;99.90
39067;DHT22;24821;51.988;6.020;2022-09-09T03:28:12;14.90;99.90
39067;DHT22;24821;51.988;6.020;2022-09-09T03:30:37;14.90;99.90
39067;DHT22;24821;51.988;6.020;2022-09-09T03:33:03;14.90;99.90
39067;DHT22;24821;51.988;6.020;2022-09-09T03:35:29;14.90;99.90
39067;DHT22;24821;51.988;6.020;2022-09-09T03:37:55;14.90;99.90
39067;DHT22;24821;51.988;6.020;2022-09-09T03:40:21;14.90;99.90
39067;DHT22;24821;51.988;6.020;2022-09-09T03:42:47;14.90;99.90
39067;DHT22;24821;51.988;6.020;2022-09-09T03:45:14;14.90;99.90
39067;DHT22;24821;51.988;6.020;2022-09-09T03:47:39;14.90;99.90
39067;DHT22;24821;51.988;6.020;2022-09-09T03:50:06;14.90;99.90
39067;DHT22;24821;51.988;6.020;2022-09-09T03:52:38;14.90;99.90
39067;DHT22;24821;51.988;6.020;2022-09-09T03:55:05;14.90;99.90
39067;DHT22;24821;51.988;6.020;2022-09-09T03:57:31;14.90;99.90
39067;DHT22;24821;51.988;6.020;2022-09-09T03:59:57;14.80;99.90
39067;DHT22;24821;51.988;6.020;2022-09-09T04:02:23;14.90;99.90
39067;DHT22;24821;51.988;6.020;2022-09-09T04:04:49;14.90;99.90
39067;DHT22;24821;51.988;6.020;2022-09-09T04:07:14;14.90;99.90
39067;DHT22;24821;51.988;6.020;2022-09-09T04:09:40;14.90;99.90
39067;DHT22;24821;51.988;6.020;2022-09-09T04:12:05;14.90;99.90
39067;DHT22;24821;51.988;6.020;2022-09-09T04:14:32;14.90;99.90
39067;DHT22;24821;51.988;6.020;2022-09-09T04:16:57;14.90;99.90
39067;DHT22;24821;51.988;6.020;2022-09-09T04:19:24;14.90;99.90
39067;DHT22;24821;51.988;6.020;2022-09-09T04:21:50;15.00;99.90
39067;DHT22;24821;51.988;6.020;2022-09-09T04:24:17;15.00;99.90
39067;DHT22;24821;51.988;6.020;2022-09-09T04:26:42;15.00;99.90
39067;DHT22;24821;51.988;6.020;2022-09-09T04:29:08;15.10;99.90
39067;DHT22;24821;51.988;6.020;2022-09-09T04:31:34;15.10;99.90
39067;DHT22;24821;51.988;6.020;2022-09-09T04:33:59;15.20;99.90
39067;DHT22;24821;51.988;6.020;2022-09-09T04:36:31;15.20;99.90
39067;DHT22;24821;51.988;6.020;2022-09-09T04:38:57;15.20;99.90
39067;DHT22;24821;51.988;6.020;2022-09-09T04:41:22;15.30;99.90
39067;DHT22;24821;51.988;6.020;2022-09-09T04:43:49;15.30;99.90
39067;DHT22;24821;51.988;6.020;2022-09-09T04:46:14;15.30;99.90
39067;DHT22;24821;51.988;6.020;2022-09-09T04:48:42;15.40;99.90
39067;DHT22;24821;51.988;6.020;2022-09-09T04:51:11;15.40;99.90
39067;DHT22;24821;51.988;6.020;2022-09-09T04:53:37;15.50;99.90
39067;DHT22;24821;51.988;6.020;2022-09-09T04:56:16;15.50;99.90
39067;DHT22;24821;51.988;6.020;2022-09-09T04:58:42;15.60;99.90
39067;DHT22;24821;51.988;6.020;2022-09-09T05:01:19;15.50;99.90
39067;DHT22;24821;51.988;6.020;2022-09-09T05:03:45;15.60;99.90
39067;DHT22;24821;51.988;6.020;2022-09-09T05:06:13;15.60;99.90
39067;DHT22;24821;51.988;6.020;2022-09-09T05:08:40;15.60;99.90
39067;DHT22;24821;51.988;6.020;2022-09-09T05:11:23;15.60;99.90
39067;DHT22;24821;51.988;6.020;2022-09-09T05:13:50;15.70;99.90
39067;DHT22;24821;51.988;6.020;2022-09-09T05:16:16;15.70;99.90
39067;DHT22;24821;51.988;6.020;2022-09-09T05:18:42;15.70;99.90
39067;DHT22;24821;51.988;6.020;2022-09-09T05:21:09;15.70;99.90
39067;DHT22;24821;51.988;6.020;2022-09-09T05:23:35;15.70;99.90
39067;DHT22;24821;51.988;6.020;2022-09-09T05:26:02;15.80;99.90
39067;DHT22;24821;51.988;6.020;2022-09-09T05:28:28;15.80;99.90
39067;DHT22;24821;51.988;6.020;2022-09-09T05:31:05;15.80;99.90
39067;DHT22;24821;51.988;6.020;2022-09-09T05:33:33;15.80;99.90
39067;DHT22;24821;51.988;6.020;2022-09-09T05:36:04;15.80;99.90
39067;DHT22;24821;51.988;6.020;2022-09-09T05:38:31;15.90;99.90
39067;DHT22;24821;51.988;6.020;2022-09-09T05:40:58;15.90;99.90
39067;DHT22;24821;51.988;6.020;2022-09-09T05:43:25;16.00;99.90
39067;DHT22;24821;51.988;6.020;2022-09-09T05:48:30;16.10;99.90
39067;DHT22;24821;51.988;6.020;2022-09-09T05:50:58;16.10;99.90
39067;DHT22;24821;51.988;6.020;2022-09-09T05:53:23;16.10;99.90
39067;DHT22;24821;51.988;6.020;2022-09-09T05:55:49;16.20;99.90
39067;DHT22;24821;51.988;6.020;2022-09-09T05:58:15;16.20;99.90
39067;DHT22;24821;51.988;6.020;2022-09-09T06:00:43;16.10;99.90
39067;DHT22;24821;51.988;6.020;2022-09-09T06:03:11;16.10;99.90
39067;DHT22;24821;51.988;6.020;2022-09-09T06:05:36;16.10;99.90
39067;DHT22;24821;51.988;6.020;2022-09-09T06:08:03;16.10;99.90
39067;DHT22;24821;51.988;6.020;2022-09-09T06:10:28;16.20;99.90
39067;DHT22;24821;51.988;6.020;2022-09-09T06:12:54;16.20;99.90
39067;DHT22;24821;51.988;6.020;2022-09-09T06:15:20;16.20;99.90
39067;DHT22;24821;51.988;6.020;2022-09-09T06:17:46;16.20;99.90
39067;DHT22;24821;51.988;6.020;2022-09-09T06:20:12;16.20;99.90
39067;DHT22;24821;51.988;6.020;2022-09-09T06:22:40;16.20;99.90
39067;DHT22;24821;51.988;6.020;2022-09-09T06:25:07;16.30;99.90
39067;DHT22;24821;51.988;6.020;2022-09-09T06:27:33;16.40;99.90
39067;DHT22;24821;51.988;6.020;2022-09-09T06:29:59;16.50;99.90
39067;DHT22;24821;51.988;6.020;2022-09-09T06:32:24;16.60;99.90
39067;DHT22;24821;51.988;6.020;2022-09-09T06:34:51;16.60;99.90
39067;DHT22;24821;51.988;6.020;2022-09-09T06:37:16;16.70;99.90
39067;DHT22;24821;51.988;6.020;2022-09-09T06:39:42;16.70;99.90
39067;DHT22;24821;51.988;6.020;2022-09-09T06:42:07;16.80;99.90
39067;DHT22;24821;51.988;6.020;2022-09-09T06:44:34;16.90;99.90
39067;DHT22;24821;51.988;6.020;2022-09-09T06:47:00;17.00;99.90
39067;DHT22;24821;51.988;6.020;2022-09-09T06:49:25;17.00;99.90
39067;DHT22;24821;51.988;6.020;2022-09-09T06:51:51;17.00;99.90
39067;DHT22;24821;51.988;6.020;2022-09-09T06:54:17;17.10;99.90
39067;DHT22;24821;51.988;6.020;2022-09-09T06:56:43;17.00;99.90
39067;DHT22;24821;51.988;6.020;2022-09-09T06:59:11;17.10;99.90
39067;DHT22;24821;51.988;6.020;2022-09-09T07:01:42;17.10;99.90
39067;DHT22;24821;51.988;6.020;2022-09-09T07:04:12;17.20;99.90
39067;DHT22;24821;51.988;6.020;2022-09-09T07:06:40;17.20;99.90
39067;DHT22;24821;51.988;6.020;2022-09-09T07:09:10;17.30;99.90
39067;DHT22;24821;51.988;6.020;2022-09-09T07:11:47;17.40;99.90
39067;DHT22;24821;51.988;6.020;2022-09-09T07:14:14;17.40;99.90
39067;DHT22;24821;51.988;6.020;2022-09-09T07:16:44;17.50;99.90
39067;DHT22;24821;51.988;6.020;2022-09-09T07:19:11;17.60;99.90
39067;DHT22;24821;51.988;6.020;2022-09-09T07:21:37;17.60;99.90
39067;DHT22;24821;51.988;6.020;2022-09-09T07:24:03;17.70;99.90
39067;DHT22;24821;51.988;6.020;2022-09-09T07:26:31;17.70;99.90
39067;DHT22;24821;51.988;6.020;2022-09-09T07:28:56;17.80;99.90
39067;DHT22;24821;51.988;6.020;2022-09-09T07:31:26;17.80;99.90
39067;DHT22;24821;51.988;6.020;2022-09-09T07:33:52;17.90;99.90
39067;DHT22;24821;51.988;6.020;2022-09-09T07:36:20;17.90;99.90
39067;DHT22;24821;51.988;6.020;2022-09-09T07:38:53;17.90;99.90
39067;DHT22;24821;51.988;6.020;2022-09-09T07:41:24;18.00;99.90
39067;DHT22;24821;51.988;6.020;2022-09-09T07:43:51;17.90;99.90
39067;DHT22;24821;51.988;6.020;2022-09-09T07:46:19;17.90;99.90
39067;DHT22;24821;51.988;6.020;2022-09-09T07:48:47;17.90;99.90
39067;DHT22;24821;51.988;6.020;2022-09-09T07:51:18;18.00;99.90
39067;DHT22;24821;51.988;6.020;2022-09-09T07:53:45;18.00;99.90
39067;DHT22;24821;51.988;6.020;2022-09-09T07:56:13;18.10;99.90
39067;DHT22;24821;51.988;6.020;2022-09-09T07:58:40;18.10;99.90
39067;DHT22;24821;51.988;6.020;2022-09-09T08:01:11;18.30;99.90
39067;DHT22;24821;51.988;6.020;2022-09-09T08:03:37;18.40;99.40
39067;DHT22;24821;51.988;6.020;2022-09-09T08:06:05;18.30;99.10
39067;DHT22;24821;51.988;6.020;2022-09-09T08:08:33;18.40;99.20
39067;DHT22;24821;51.988;6.020;2022-09-09T08:11:08;18.50;99.50
39067;DHT22;24821;51.988;6.020;2022-09-09T08:13:36;18.60;99.30
39067;DHT22;24821;51.988;6.020;2022-09-09T08:16:13;18.60;98.90
39067;DHT22;24821;51.988;6.020;2022-09-09T08:18:40;18.60;98.50
39067;DHT22;24821;51.988;6.020;2022-09-09T08:21:14;18.60;98.80
39067;DHT22;24821;51.988;6.020;2022-09-09T08:23:45;18.60;98.50
39067;DHT22;24821;51.988;6.020;2022-09-09T08:26:56;18.60;98.60
39067;DHT22;24821;51.988;6.020;2022-09-09T08:29:06;18.60;98.50
39067;DHT22;24821;51.988;6.020;2022-09-09T08:31:40;18.70;98.40
39067;DHT22;24821;51.988;6.020;2022-09-09T08:34:06;18.70;98.40
39067;DHT22;24821;51.988;6.020;2022-09-09T08:36:42;18.60;98.10
39067;DHT22;24821;51.988;6.020;2022-09-09T08:39:11;18.60;97.90
39067;DHT22;24821;51.988;6.020;2022-09-09T08:42:13;18.70;97.80
39067;DHT22;24821;51.988;6.020;2022-09-09T08:53:15;18.90;97.20
39067;DHT22;24821;51.988;6.020;2022-09-09T08:58:21;18.90;97.20
39067;DHT22;24821;51.988;6.020;2022-09-09T09:06:26;18.80;97.20
39067;DHT22;24821;51.988;6.020;2022-09-09T09:12:22;18.80;97.40
39067;DHT22;24821;51.988;6.020;2022-09-09T09:14:48;18.80;97.40
39067;DHT22;24821;51.988;6.020;2022-09-09T09:17:19;18.80;97.30
39067;DHT22;24821;51.988;6.020;2022-09-09T09:19:47;18.80;97.20
39067;DHT22;24821;51.988;6.020;2022-09-09T09:22:23;18.90;97.00
39067;DHT22;24821;51.988;6.020;2022-09-09T09:24:55;19.00;96.50
39067;DHT22;24821;51.988;6.020;2022-09-09T09:27:31;19.10;96.40
39067;DHT22;24821;51.988;6.020;2022-09-09T09:29:59;19.30;96.30
39067;DHT22;24821;51.988;6.020;2022-09-09T09:32:28;19.40;95.80
39067;DHT22;24821;51.988;6.020;2022-09-09T09:34:56;19.50;95.80
39067;DHT22;24821;51.988;6.020;2022-09-09T09:37:28;19.50;95.80
39067;DHT22;24821;51.988;6.020;2022-09-09T09:39:54;19.60;95.70
39067;DHT22;24821;51.988;6.020;2022-09-09T09:42:20;19.50;95.00
39067;DHT22;24821;51.988;6.020;2022-09-09T09:44:46;19.50;95.30
39067;DHT22;24821;51.988;6.020;2022-09-09T09:47:16;19.40;95.70
39067;DHT22;24821;51.988;6.020;2022-09-09T09:49:56;19.40;95.70
39067;DHT22;24821;51.988;6.020;2022-09-09T09:52:26;19.50;95.80
39067;DHT22;24821;51.988;6.020;2022-09-09T09:54:53;19.60;95.40
39067;DHT22;24821;51.988;6.020;2022-09-09T09:57:24;19.70;95.20
39067;DHT22;24821;51.988;6.020;2022-09-09T10:00:04;19.80;95.10
39067;DHT22;24821;51.988;6.020;2022-09-09T10:02:40;19.80;94.90
39067;DHT22;24821;51.988;6.020;2022-09-09T10:05:19;19.80;94.70
39067;DHT22;24821;51.988;6.020;2022-09-09T10:07:46;19.80;94.90
39067;DHT22;24821;51.988;6.020;2022-09-09T10:10:18;19.90;94.80
39067;DHT22;24821;51.988;6.020;2022-09-09T10:13:03;19.90;94.60
39067;DHT22;24821;51.988;6.020;2022-09-09T10:15:58;19.80;94.30
39067;DHT22;24821;51.988;6.020;2022-09-09T10:18:58;19.80;94.40
39067;DHT22;24821;51.988;6.020;2022-09-09T10:24:37;19.50;94.80
39067;DHT22;24821;51.988;6.020;2022-09-09T10:35:35;19.20;95.50
39067;DHT22;24821;51.988;6.020;2022-09-09T10:38:13;19.10;95.80
39067;DHT22;24821;51.988;6.020;2022-09-09T10:46:37;19.30;95.60
39067;DHT22;24821;51.988;6.020;2022-09-09T10:49:42;19.30;95.40
39067;DHT22;24821;51.988;6.020;2022-09-09T10:57:31;19.20;95.50
39067;DHT22;24821;51.988;6.020;2022-09-09T11:00:06;19.20;95.50
39067;DHT22;24821;51.988;6.020;2022-09-09T11:02:34;19.20;95.30
39067;DHT22;24821;51.988;6.020;2022-09-09T11:05:16;19.30;95.40
39067;DHT22;24821;51.988;6.020;2022-09-09T11:07:56;19.30;95.60
39067;DHT22;24821;51.988;6.020;2022-09-09T11:10:40;19.50;96.10
39067;DHT22;24821;51.988;6.020;2022-09-09T11:13:21;19.60;95.50
39067;DHT22;24821;51.988;6.020;2022-09-09T11:15:53;19.80;95.10
39067;DHT22;24821;51.988;6.020;2022-09-09T11:18:21;19.80;94.60
39067;DHT22;24821;51.988;6.020;2022-09-09T11:20:53;19.80;94.60
39067;DHT22;24821;51.988;6.020;2022-09-09T11:23:29;19.70;94.70
39067;DHT22;24821;51.988;6.020;2022-09-09T11:26:00;19.80;94.80
39067;DHT22;24821;51.988;6.020;2022-09-09T11:31:36;19.60;94.70
39067;DHT22;24821;51.988;6.020;2022-09-09T11:34:34;19.50;95.30
39067;DHT22;24821;51.988;6.020;2022-09-09T11:42:47;19.70;95.80
39067;DHT22;24821;51.988;6.020;2022-09-09T11:45:24;19.70;95.80
39067;DHT22;24821;51.988;6.020;2022-09-09T11:47:57;19.60;96.30
39067;DHT22;24821;51.988;6.020;2022-09-09T11:52:49;19.30;97.40
39067;DHT22;24821;51.988;6.020;2022-09-09T11:55:33;19.30;98.00
39067;DHT22;24821;51.988;6.020;2022-09-09T11:58:06;19.30;98.20
39067;DHT22;24821;51.988;6.020;2022-09-09T12:00:42;19.30;98.70
39067;DHT22;24821;51.988;6.020;2022-09-09T12:03:50;19.60;98.60
39067;DHT22;24821;51.988;6.020;2022-09-09T12:06:30;19.80;98.10
39067;DHT22;24821;51.988;6.020;2022-09-09T12:09:10;19.80;97.40
39067;DHT22;24821;51.988;6.020;2022-09-09T12:11:39;19.80;97.80
39067;DHT22;24821;51.988;6.020;2022-09-09T12:14:17;19.60;98.20
39067;DHT22;24821;51.988;6.020;2022-09-09T12:16:43;19.50;98.40
39067;DHT22;24821;51.988;6.020;2022-09-09T12:22:07;19.50;98.10
39067;DHT22;24821;51.988;6.020;2022-09-09T12:28:00;19.50;97.80
39067;DHT22;24821;51.988;6.020;2022-09-09T12:33:20;19.50;98.50
39067;DHT22;24821;51.988;6.020;2022-09-09T12:35:55;19.40;98.20
39067;DHT22;24821;51.988;6.020;2022-09-09T12:38:31;19.50;98.30
39067;DHT22;24821;51.988;6.020;2022-09-09T12:40:58;19.50;98.60
39067;DHT22;24821;51.988;6.020;2022-09-09T12:43:25;19.50;98.10
39067;DHT22;24821;51.988;6.020;2022-09-09T12:45:55;19.60;98.20
39067;DHT22;24821;51.988;6.020;2022-09-09T12:48:33;19.80;97.80
39067;DHT22;24821;51.988;6.020;2022-09-09T12:51:00;19.80;97.60
39067;DHT22;24821;51.988;6.020;2022-09-09T12:53:33;19.90;97.30
39067;DHT22;24821;51.988;6.020;2022-09-09T12:56:04;19.90;97.30
39067;DHT22;24821;51.988;6.020;2022-09-09T12:58:30;20.00;97.30
39067;DHT22;24821;51.988;6.020;2022-09-09T13:01:00;20.10;97.00
39067;DHT22;24821;51.988;6.020;2022-09-09T13:03:32;20.30;96.70
39067;DHT22;24821;51.988;6.020;2022-09-09T13:06:10;20.30;96.70
39067;DHT22;24821;51.988;6.020;2022-09-09T13:08:37;20.30;96.00
39067;DHT22;24821;51.988;6.020;2022-09-09T13:11:09;20.30;96.30
39067;DHT22;24821;51.988;6.020;2022-09-09T13:13:37;20.20;96.40
39067;DHT22;24821;51.988;6.020;2022-09-09T13:16:05;20.10;96.30
39067;DHT22;24821;51.988;6.020;2022-09-09T13:18:35;20.00;96.50
39067;DHT22;24821;51.988;6.020;2022-09-09T13:21:03;20.00;96.80
39067;DHT22;24821;51.988;6.020;2022-09-09T13:23:31;20.00;96.90
39067;DHT22;24821;51.988;6.020;2022-09-09T13:26:04;20.20;97.10
39067;DHT22;24821;51.988;6.020;2022-09-09T13:28:31;20.40;97.00
39067;DHT22;24821;51.988;6.020;2022-09-09T13:31:18;20.50;96.60
39067;DHT22;24821;51.988;6.020;2022-09-09T13:33:44;20.70;96.40
39067;DHT22;24821;51.988;6.020;2022-09-09T13:36:11;20.70;95.90
39067;DHT22;24821;51.988;6.020;2022-09-09T13:38:53;20.60;95.70
39067;DHT22;24821;51.988;6.020;2022-09-09T13:41:21;20.50;95.80
39067;DHT22;24821;51.988;6.020;2022-09-09T13:43:49;20.40;96.10
39067;DHT22;24821;51.988;6.020;2022-09-09T13:51:38;20.20;96.20
39067;DHT22;24821;51.988;6.020;2022-09-09T13:54:09;20.30;96.50
39067;DHT22;24821;51.988;6.020;2022-09-09T13:56:36;20.40;96.50
39067;DHT22;24821;51.988;6.020;2022-09-09T13:59:04;20.50;96.30
39067;DHT22;24821;51.988;6.020;2022-09-09T14:01:29;20.40;95.60
39067;DHT22;24821;51.988;6.020;2022-09-09T14:03:56;20.40;95.50
39067;DHT22;24821;51.988;6.020;2022-09-09T14:06:23;20.30;95.70
39067;DHT22;24821;51.988;6.020;2022-09-09T14:08:50;20.10;95.50
39067;DHT22;24821;51.988;6.020;2022-09-09T14:11:16;20.00;95.80
39067;DHT22;24821;51.988;6.020;2022-09-09T14:13:42;19.80;96.00
39067;DHT22;24821;51.988;6.020;2022-09-09T14:16:07;19.80;96.30
39067;DHT22;24821;51.988;6.020;2022-09-09T14:18:33;19.80;96.50
39067;DHT22;24821;51.988;6.020;2022-09-09T14:20:59;19.90;96.60
39067;DHT22;24821;51.988;6.020;2022-09-09T14:23:25;20.00;96.80
39067;DHT22;24821;51.988;6.020;2022-09-09T14:25:51;20.20;96.70
39067;DHT22;24821;51.988;6.020;2022-09-09T14:28:17;20.20;96.50
39067;DHT22;24821;51.988;6.020;2022-09-09T14:30:44;20.30;96.60
39067;DHT22;24821;51.988;6.020;2022-09-09T14:33:11;20.30;96.50
39067;DHT22;24821;51.988;6.020;2022-09-09T14:35:37;20.20;96.60
39067;DHT22;24821;51.988;6.020;2022-09-09T14:38:04;20.10;96.80
39067;DHT22;24821;51.988;6.020;2022-09-09T14:40:30;20.10;96.70
39067;DHT22;24821;51.988;6.020;2022-09-09T14:42:56;20.10;96.60
39067;DHT22;24821;51.988;6.020;2022-09-09T14:45:23;20.00;96.70
39067;DHT22;24821;51.988;6.020;2022-09-09T14:47:50;20.00;96.90
39067;DHT22;24821;51.988;6.020;2022-09-09T14:50:16;20.00;96.70
39067;DHT22;24821;51.988;6.020;2022-09-09T14:52:41;20.00;96.90
39067;DHT22;24821;51.988;6.020;2022-09-09T14:55:07;20.00;96.60
39067;DHT22;24821;51.988;6.020;2022-09-09T14:57:33;20.10;96.70
39067;DHT22;24821;51.988;6.020;2022-09-09T15:00:00;20.20;96.70
39067;DHT22;24821;51.988;6.020;2022-09-09T15:02:25;20.20;96.70
39067;DHT22;24821;51.988;6.020;2022-09-09T15:04:51;20.20;96.60
39067;DHT22;24821;51.988;6.020;2022-09-09T15:07:18;20.20;96.60
39067;DHT22;24821;51.988;6.020;2022-09-09T15:09:45;20.20;96.80
39067;DHT22;24821;51.988;6.020;2022-09-09T15:12:11;20.30;96.70
39067;DHT22;24821;51.988;6.020;2022-09-09T15:21:57;20.50;96.50
39067;DHT22;24821;51.988;6.020;2022-09-09T15:24:25;20.40;96.30
39067;DHT22;24821;51.988;6.020;2022-09-09T15:26:51;20.50;96.40
39067;DHT22;24821;51.988;6.020;2022-09-09T15:29:17;20.60;96.40
39067;DHT22;24821;51.988;6.020;2022-09-09T15:31:43;20.60;96.20
39067;DHT22;24821;51.988;6.020;2022-09-09T15:34:09;20.60;96.00
39067;DHT22;24821;51.988;6.020;2022-09-09T15:36:36;20.60;96.00
39067;DHT22;24821;51.988;6.020;2022-09-09T15:39:05;20.50;96.10
39067;DHT22;24821;51.988;6.020;2022-09-09T15:41:32;20.50;96.00
39067;DHT22;24821;51.988;6.020;2022-09-09T15:43:58;20.40;95.60
39067;DHT22;24821;51.988;6.020;2022-09-09T15:49:12;20.30;95.40
39067;DHT22;24821;51.988;6.020;2022-09-09T15:51:40;20.30;95.50
39067;DHT22;24821;51.988;6.020;2022-09-09T15:54:08;20.20;95.70
39067;DHT22;24821;51.988;6.020;2022-09-09T15:56:33;20.10;95.80
39067;DHT22;24821;51.988;6.020;2022-09-09T15:59:00;20.10;96.00
39067;DHT22;24821;51.988;6.020;2022-09-09T16:01:29;20.10;96.10
39067;DHT22;24821;51.988;6.020;2022-09-09T16:03:56;20.10;96.00
39067;DHT22;24821;51.988;6.020;2022-09-09T16:06:23;20.10;95.80
39067;DHT22;24821;51.988;6.020;2022-09-09T16:08:51;20.00;96.00
39067;DHT22;24821;51.988;6.020;2022-09-09T16:11:22;20.10;96.00
39067;DHT22;24821;51.988;6.020;2022-09-09T16:13:49;20.00;95.90
39067;DHT22;24821;51.988;6.020;2022-09-09T16:16:17;20.00;95.90
39067;DHT22;24821;51.988;6.020;2022-09-09T16:18:46;20.00;96.00
39067;DHT22;24821;51.988;6.020;2022-09-09T16:21:21;19.90;95.90
39067;DHT22;24821;51.988;6.020;2022-09-09T16:23:49;20.00;96.10
39067;DHT22;24821;51.988;6.020;2022-09-09T16:26:16;19.90;95.60
39067;DHT22;24821;51.988;6.020;2022-09-09T16:28:42;19.80;95.70
39067;DHT22;24821;51.988;6.020;2022-09-09T16:31:10;19.60;96.20
39067;DHT22;24821;51.988;6.020;2022-09-09T16:33:39;19.50;96.50
39067;DHT22;24821;51.988;6.020;2022-09-09T16:36:10;19.40;96.80
39067;DHT22;24821;51.988;6.020;2022-09-09T16:38:36;19.30;97.10
39067;DHT22;24821;51.988;6.020;2022-09-09T16:41:03;19.30;97.30
39067;DHT22;24821;51.988;6.020;2022-09-09T16:43:31;19.30;97.50
39067;DHT22;24821;51.988;6.020;2022-09-09T16:45:57;19.20;97.60
39067;DHT22;24821;51.988;6.020;2022-09-09T16:48:23;19.20;97.80
39067;DHT22;24821;51.988;6.020;2022-09-09T16:50:48;19.10;97.90
39067;DHT22;24821;51.988;6.020;2022-09-09T16:53:14;19.10;98.00
39067;DHT22;24821;51.988;6.020;2022-09-09T16:55:41;19.00;98.10
39067;DHT22;24821;51.988;6.020;2022-09-09T16:58:09;18.90;97.70
39067;DHT22;24821;51.988;6.020;2022-09-09T17:00:35;18.80;97.70
39067;DHT22;24821;51.988;6.020;2022-09-09T17:03:01;18.70;97.70
39067;DHT22;24821;51.988;6.020;2022-09-09T17:05:28;18.60;97.80
39067;DHT22;24821;51.988;6.020;2022-09-09T17:07:54;18.50;97.90
39067;DHT22;24821;51.988;6.020;2022-09-09T17:10:25;18.40;98.20
39067;DHT22;24821;51.988;6.020;2022-09-09T17:12:51;18.40;98.40
39067;DHT22;24821;51.988;6.020;2022-09-09T17:15:16;18.40;98.70
39067;DHT22;24821;51.988;6.020;2022-09-09T17:17:43;18.30;98.90
39067;DHT22;24821;51.988;6.020;2022-09-09T17:20:10;18.30;99.10
39067;DHT22;24821;51.988;6.020;2022-09-09T17:22:36;18.30;99.30
39067;DHT22;24821;51.988;6.020;2022-09-09T17:25:02;18.30;99.40
39067;DHT22;24821;51.988;6.020;2022-09-09T17:27:28;18.20;99.70
39067;DHT22;24821;51.988;6.020;2022-09-09T17:29:56;18.20;99.80
39067;DHT22;24821;51.988;6.020;2022-09-09T17:32:22;18.20;99.90
39067;DHT22;24821;51.988;6.020;2022-09-09T17:34:48;18.30;99.90
39067;DHT22;24821;51.988;6.020;2022-09-09T17:37:13;18.20;99.90
39067;DHT22;24821;51.988;6.020;2022-09-09T17:39:39;18.20;99.90
39067;DHT22;24821;51.988;6.020;2022-09-09T17:42:05;18.20;99.90
39067;DHT22;24821;51.988;6.020;2022-09-09T17:44:32;18.10;99.90
39067;DHT22;24821;51.988;6.020;2022-09-09T17:46:58;18.10;99.90
39067;DHT22;24821;51.988;6.020;2022-09-09T17:49:25;18.00;99.90